createdAt,value
2023-06-20T00:02:14.936Z,6.43
2023-06-20T00:04:45.241Z,5.63
2023-06-20T00:07:16.074Z,5.62
2023-06-20T00:09:46.936Z,5.6
2023-06-20T00:12:17.769Z,5.61
2023-06-20T00:14:48.081Z,4.17
2023-06-20T00:17:18.447Z,3.35
2023-06-20T00:19:48.698Z,3.52
2023-06-20T00:22:19.118Z,3.53
2023-06-20T00:24:49.439Z,3.78
2023-06-20T00:27:19.985Z,3.77
2023-06-20T00:29:50.051Z,3.6
2023-06-20T00:32:20.318Z,3.55
2023-06-20T00:34:50.640Z,3.67
2023-06-20T00:37:21.450Z,3.87
2023-06-20T00:39:51.745Z,3.79
2023-06-20T00:42:22.030Z,3.92
2023-06-20T00:44:52.891Z,3.79
2023-06-20T00:47:23.727Z,3.57
2023-06-20T00:49:54.267Z,3.9
2023-06-20T00:52:24.225Z,3.78
2023-06-20T00:54:54.272Z,3.91
2023-06-20T00:57:24.333Z,4.37
2023-06-20T00:59:54.809Z,4.5
2023-06-20T01:02:25.469Z,3.73
2023-06-20T01:04:55.692Z,3.75
2023-06-20T01:07:25.979Z,3.7
2023-06-20T01:09:56.528Z,3.65
2023-06-20T01:12:26.695Z,3.62
2023-06-20T01:14:57.240Z,3.56
2023-06-20T01:17:27.553Z,3.55
2023-06-20T01:19:57.475Z,3.91
2023-06-20T01:22:27.773Z,3.56
2023-06-20T01:24:58.343Z,3.68
2023-06-20T01:27:28.660Z,3.71
2023-06-20T01:29:58.752Z,3.99
2023-06-20T01:32:29.017Z,3.51
2023-06-20T01:34:59.038Z,3.92
2023-06-20T01:37:29.149Z,3.62
2023-06-20T01:39:59.914Z,3.6
2023-06-20T01:42:30.424Z,4.45
2023-06-20T01:45:01.026Z,4.23
2023-06-20T01:47:31.175Z,4.47
2023-06-20T01:50:01.605Z,4.4
2023-06-20T01:52:31.625Z,4.4
2023-06-20T01:55:02.348Z,4.11
2023-06-20T01:57:32.989Z,4.06
2023-06-20T02:00:03.498Z,4
2023-06-20T02:02:34.184Z,3.69
2023-06-20T02:05:04.931Z,3.82
2023-06-20T02:07:35.162Z,4.55
2023-06-20T02:10:05.804Z,3.84
2023-06-20T02:12:36.344Z,3.91
2023-06-20T02:15:06.514Z,3.97
2023-06-20T02:17:36.813Z,3.71
2023-06-20T02:20:06.822Z,4.12
2023-06-20T02:22:37.090Z,3.79
2023-06-20T02:25:08.072Z,4.32
2023-06-20T02:27:38.045Z,4.19
2023-06-20T02:30:08.721Z,4.25
2023-06-20T02:32:39.277Z,4.1
2023-06-20T02:35:09.833Z,4.37
2023-06-20T02:37:40.428Z,4.29
2023-06-20T02:40:11.336Z,4.27
2023-06-20T02:42:43.730Z,4.9
2023-06-20T02:45:12.157Z,4.83
2023-06-20T02:47:42.766Z,4.36
2023-06-20T02:50:12.851Z,4.49
2023-06-20T02:52:42.866Z,4.34
2023-06-20T02:55:13.653Z,4.56
2023-06-20T02:57:44.172Z,4.35
2023-06-20T03:00:14.173Z,4.29
2023-06-20T03:02:44.580Z,4.29
2023-06-20T03:05:14.800Z,4.24
2023-06-20T03:07:45.362Z,4.46
2023-06-20T03:10:15.974Z,4.35
2023-06-20T03:12:46.477Z,4.48
2023-06-20T03:15:17.063Z,4.37
2023-06-20T03:17:47.682Z,4.68
2023-06-20T03:20:17.949Z,4.58
2023-06-20T03:22:48.555Z,4.44
2023-06-20T03:25:18.886Z,4.77
2023-06-20T03:27:49.640Z,4.39
2023-06-20T03:30:20.276Z,4.55
2023-06-20T03:32:50.639Z,4.43
2023-06-20T03:35:20.880Z,4.17
2023-06-20T03:37:50.878Z,5.27
2023-06-20T03:40:21.497Z,4.57
2023-06-20T03:42:52.051Z,4.51
2023-06-20T03:45:22.764Z,4.44
2023-06-20T03:47:53.036Z,4.24
2023-06-20T03:50:23.108Z,4.43
2023-06-20T03:52:53.605Z,4.31
2023-06-20T03:55:24.545Z,4.44
2023-06-20T03:57:54.779Z,4.16
2023-06-20T04:00:25.693Z,4.33
2023-06-20T04:02:56.277Z,4.07
2023-06-20T04:05:27.389Z,4.47
2023-06-20T04:07:57.943Z,4.27
2023-06-20T04:10:28.899Z,4.29
2023-06-20T04:12:59.117Z,4.14
2023-06-20T04:15:29.454Z,4.33
2023-06-20T04:18:00.160Z,4.33
2023-06-20T04:20:30.800Z,4.48
2023-06-20T04:23:01.016Z,4.47
2023-06-20T04:25:31.197Z,4.34
2023-06-20T04:28:01.522Z,4.25
2023-06-20T04:30:32.035Z,4.47
2023-06-20T04:33:02.157Z,4.27
2023-06-20T04:35:32.680Z,4.47
2023-06-20T04:38:03.403Z,4.25
2023-06-20T04:40:33.512Z,4.53
2023-06-20T04:43:03.924Z,4.66
2023-06-20T04:45:34.374Z,4.31
2023-06-20T04:48:04.792Z,4.6
2023-06-20T04:50:34.711Z,4.53
2023-06-20T04:53:04.803Z,4.34
2023-06-20T04:55:35.132Z,4.33
2023-06-20T04:58:05.964Z,4.45
2023-06-20T05:00:36.202Z,4.31
2023-06-20T05:03:06.740Z,4.09
2023-06-20T05:05:37.248Z,4.57
2023-06-20T05:08:07.372Z,4.99
2023-06-20T05:10:37.320Z,4.68
2023-06-20T05:13:07.586Z,4.13
2023-06-20T05:15:38.201Z,4.53
2023-06-20T05:18:08.391Z,4.48
2023-06-20T05:20:39.084Z,4.41
2023-06-20T05:23:10.125Z,4.73
2023-06-20T05:25:40.361Z,4.45
2023-06-20T05:28:11.100Z,4.54
2023-06-20T05:30:41.299Z,4.35
2023-06-20T05:33:11.399Z,4.5
2023-06-20T05:35:41.511Z,4.66
2023-06-20T05:38:11.784Z,4.8
2023-06-20T05:40:42.311Z,4.63
2023-06-20T05:43:12.884Z,4.78
2023-06-20T05:45:44.870Z,4.62
2023-06-20T05:48:13.775Z,4.7
2023-06-20T05:50:44.336Z,4.46
2023-06-20T05:53:14.517Z,4.55
2023-06-20T05:55:45.382Z,4.36
2023-06-20T05:58:16.186Z,4.35
2023-06-20T06:00:46.209Z,4.64
2023-06-20T06:03:16.641Z,4.84
2023-06-20T06:05:46.980Z,4.68
2023-06-20T06:08:17.342Z,4.39
2023-06-20T06:10:47.338Z,5.02
2023-06-20T06:13:17.837Z,4.66
2023-06-20T06:15:59.262Z,4.53
2023-06-20T06:18:17.929Z,5.49
2023-06-20T06:20:48.539Z,5.34
2023-06-20T06:23:18.952Z,4.66
2023-06-20T06:25:49.249Z,4.65
2023-06-20T06:28:19.247Z,4.78
2023-06-20T06:30:49.867Z,4.77
2023-06-20T06:33:20.325Z,4.57
2023-06-20T06:35:51.211Z,4.57
2023-06-20T06:38:21.310Z,4.66
2023-06-20T06:40:51.333Z,4.59
2023-06-20T06:43:21.883Z,4.76
2023-06-20T06:45:52.765Z,4.9
2023-06-20T06:48:22.979Z,4.61
2023-06-20T06:50:53.774Z,4.69
2023-06-20T06:53:24.468Z,4.61
2023-06-20T06:55:54.637Z,4.61
2023-06-20T06:58:24.708Z,4.75
2023-06-20T07:00:54.986Z,4.74
2023-06-20T07:03:25.859Z,4.96
2023-06-20T07:05:56.229Z,4.85
2023-06-20T07:08:26.579Z,4.89
2023-06-20T07:10:57.094Z,4.99
2023-06-20T07:13:27.548Z,4.99
2023-06-20T07:15:58.437Z,4.68
2023-06-20T07:18:29.753Z,4.75
2023-06-20T07:20:58.996Z,4.82
2023-06-20T07:23:29.660Z,4.62
2023-06-20T07:26:00.067Z,4.62
2023-06-20T07:28:30.907Z,4.89
2023-06-20T07:31:01.035Z,5.17
2023-06-20T07:33:31.832Z,5.06
2023-06-20T07:36:02.374Z,5.03
2023-06-20T07:38:32.806Z,4.79
2023-06-20T07:41:03.120Z,4.5
2023-06-20T07:43:33.985Z,4.67
2023-06-20T07:46:04.710Z,4.66
2023-06-20T07:48:35.551Z,4.5
2023-06-20T07:51:05.981Z,4.63
2023-06-20T07:53:36.203Z,4.55
2023-06-20T07:56:06.361Z,4.68
2023-06-20T07:58:37.140Z,4.73
2023-06-20T08:01:07.552Z,5.22
2023-06-20T08:03:37.694Z,4.68
2023-06-20T08:06:07.833Z,4.38
2023-06-20T08:08:38.666Z,4.35
2023-06-20T08:11:08.743Z,4.42
2023-06-20T08:13:38.952Z,4.21
2023-06-20T08:16:11.433Z,4.39
2023-06-20T08:18:40.178Z,4.37
2023-06-20T08:21:10.681Z,4.5
2023-06-20T08:23:40.870Z,4.26
2023-06-20T08:26:11.429Z,4.46
2023-06-20T08:28:41.843Z,4.53
2023-06-20T08:31:12.448Z,4.44
2023-06-20T08:33:42.865Z,4.08
2023-06-20T08:36:13.297Z,4.15
2023-06-20T08:38:44.055Z,4.15
2023-06-20T08:41:14.293Z,4.21
2023-06-20T08:43:44.697Z,4.48
2023-06-20T08:46:15.287Z,4.32
2023-06-20T08:48:45.720Z,4.4
2023-06-20T08:51:16.471Z,4.15
2023-06-20T08:53:47.270Z,4.27
2023-06-20T08:56:17.655Z,4.21
2023-06-20T08:58:47.853Z,4
2023-06-20T09:01:18.127Z,4.64
2023-06-20T09:03:48.212Z,4.49
2023-06-20T09:06:18.746Z,4.28
2023-06-20T09:08:49.507Z,4.34
2023-06-20T09:11:20.330Z,4.33
2023-06-20T09:13:50.564Z,4.07
2023-06-20T09:16:20.655Z,4.12
2023-06-20T09:18:51.458Z,3.8
2023-06-20T09:21:21.926Z,4.13
2023-06-20T09:23:52.666Z,3.86
2023-06-20T09:26:22.857Z,3.79
2023-06-20T09:28:53.644Z,3.89
2023-06-20T09:31:23.822Z,3.44
2023-06-20T09:33:54.515Z,3.53
2023-06-20T09:36:24.792Z,3.7
2023-06-20T09:38:55.468Z,3.7
2023-06-20T09:41:25.945Z,3.68
2023-06-20T09:43:56.115Z,3.52
2023-06-20T09:46:26.868Z,3.6
2023-06-20T09:48:57.495Z,3.54
2023-06-20T09:51:27.860Z,3.75
2023-06-20T09:53:58.548Z,3.49
2023-06-20T09:56:28.673Z,3.47
2023-06-20T09:58:59.479Z,3.58
2023-06-20T10:01:30.050Z,3.5
2023-06-20T10:04:00.242Z,3.65
2023-06-20T10:06:30.344Z,3.61
2023-06-20T10:09:00.601Z,3.52
2023-06-20T10:11:31.450Z,2.97
2023-06-20T10:14:01.569Z,2.92
2023-06-20T10:16:31.691Z,3.11
2023-06-20T10:19:01.984Z,3.07
2023-06-20T10:21:31.920Z,3.2
2023-06-20T10:24:02.318Z,3.26
2023-06-20T10:26:32.712Z,3.56
2023-06-20T10:29:02.806Z,3.54
2023-06-20T10:31:33.556Z,3.55
2023-06-20T10:34:04.142Z,3.4
2023-06-20T10:36:34.817Z,3.43
2023-06-20T10:39:04.987Z,3.33
2023-06-20T10:41:35.000Z,3.45
2023-06-20T10:44:05.142Z,3.52
2023-06-20T10:46:35.247Z,3.12
2023-06-20T10:49:05.259Z,3.14
2023-06-20T10:51:35.385Z,3.18
2023-06-20T10:54:05.384Z,3.24
2023-06-20T10:56:35.480Z,3.22
2023-06-20T10:59:06.157Z,3.04
2023-06-20T11:01:38.731Z,3.24
2023-06-20T11:04:06.819Z,3.16
2023-06-20T11:06:36.887Z,2.92
2023-06-20T11:09:07.533Z,2.95
2023-06-20T11:11:37.614Z,3.23
2023-06-20T11:14:07.674Z,3.22
2023-06-20T11:16:37.755Z,3.11
2023-06-20T11:19:16.256Z,3.21
2023-06-20T11:21:38.482Z,3.21
2023-06-20T11:24:09.103Z,3.25
2023-06-20T11:26:39.168Z,3.12
2023-06-20T11:29:14.582Z,3.11
2023-06-20T11:31:39.863Z,5.73
2023-06-20T11:34:11.385Z,4.98
2023-06-20T11:36:41.100Z,5.34
2023-06-20T11:39:11.109Z,5.2
2023-06-20T11:41:41.221Z,5.09
2023-06-20T11:44:11.773Z,5.3
2023-06-20T11:46:41.868Z,5.13
2023-06-20T11:49:11.883Z,5.3
2023-06-20T11:51:41.894Z,5.12
2023-06-20T11:54:11.912Z,5.43
2023-06-20T11:56:41.951Z,5.04
2023-06-20T11:59:11.960Z,5.2
2023-06-20T12:01:42.353Z,4.98
2023-06-20T12:04:12.930Z,4.66
2023-06-20T12:06:43.027Z,4.6
2023-06-20T12:09:13.005Z,4.67
2023-06-20T12:11:43.070Z,4.79
2023-06-20T12:14:13.113Z,4.92
2023-06-20T12:16:43.179Z,4.61
2023-06-20T12:19:13.775Z,4.84
2023-06-20T12:21:43.824Z,4.65
2023-06-20T12:24:13.956Z,4.78
2023-06-20T12:26:43.898Z,5.03
2023-06-20T12:29:14.482Z,4.8
2023-06-20T12:31:44.556Z,4.77
2023-06-20T12:34:15.255Z,4.76
2023-06-20T12:36:44.590Z,4.94
2023-06-20T12:39:15.280Z,4.67
2023-06-20T12:41:45.215Z,4.43
2023-06-20T12:44:15.234Z,4.75
2023-06-20T12:46:45.284Z,4.72
2023-06-20T12:49:15.878Z,4.73
2023-06-20T12:51:45.885Z,4.68
2023-06-20T12:54:15.930Z,4.64
2023-06-20T12:56:46.609Z,4.7
2023-06-20T12:59:16.543Z,4.64
2023-06-20T13:01:46.620Z,4.64
2023-06-20T13:04:16.646Z,4.47
2023-06-20T13:06:47.293Z,4.62
2023-06-20T13:09:17.269Z,4.62
2023-06-20T13:11:48.101Z,4.51
2023-06-20T13:14:17.458Z,4.34
2023-06-20T13:16:47.443Z,4.36
2023-06-20T13:19:17.490Z,4.54
2023-06-20T13:21:47.548Z,4.67
2023-06-20T13:24:18.244Z,4.77
2023-06-20T13:26:48.259Z,4.71
2023-06-20T13:29:18.822Z,4.63
2023-06-20T13:31:49.136Z,4.43
2023-06-20T13:34:19.230Z,4.5
2023-06-20T13:36:49.284Z,4.54
2023-06-20T13:39:19.445Z,3.89
2023-06-20T13:41:49.994Z,4.58
2023-06-20T13:44:20.550Z,4.62
2023-06-20T13:46:50.817Z,4.41
2023-06-20T13:49:21.393Z,4.38
2023-06-20T13:51:51.607Z,4.28
2023-06-20T13:54:21.555Z,4.31
2023-06-20T13:56:51.641Z,3.94
2023-06-20T13:59:22.189Z,4.45
2023-06-20T14:01:52.925Z,4.31
2023-06-20T14:04:22.858Z,4.21
2023-06-20T14:06:52.878Z,4.11
2023-06-20T14:09:22.901Z,4.2
2023-06-20T14:11:52.955Z,4.47
2023-06-20T14:14:22.971Z,4.45
2023-06-20T14:16:53.043Z,4.31
2023-06-20T14:19:23.050Z,4.22
2023-06-20T14:21:53.851Z,4.25
2023-06-20T14:24:23.970Z,4.39
2023-06-20T14:26:53.902Z,3.98
2023-06-20T14:29:23.919Z,4.08
2023-06-20T14:31:53.971Z,4
2023-06-20T14:34:24.000Z,3.97
2023-06-20T14:36:57.339Z,3.82
2023-06-20T14:39:24.633Z,3.98
2023-06-20T14:41:55.192Z,3.84
2023-06-20T14:44:25.200Z,4
2023-06-20T14:46:55.869Z,4.15
2023-06-20T14:49:25.814Z,4.35
2023-06-20T14:51:56.431Z,4.15
2023-06-20T14:54:26.994Z,4.54
2023-06-20T14:56:57.079Z,4.21
2023-06-20T14:59:27.047Z,4.26
2023-06-20T15:01:57.447Z,4.1
2023-06-20T15:04:27.436Z,3.99
2023-06-20T15:06:58.089Z,4.2
2023-06-20T15:09:28.612Z,3.98
2023-06-20T15:11:59.191Z,3.83
2023-06-20T15:14:29.210Z,4.1
2023-06-20T15:16:59.268Z,4.1
2023-06-20T15:19:29.301Z,4.09
2023-06-20T15:21:59.291Z,4.14
2023-06-20T15:24:29.300Z,3.94
2023-06-20T15:26:59.954Z,3.94
2023-06-20T15:29:30.001Z,4.25
2023-06-20T15:32:00.022Z,4.14
2023-06-20T15:34:30.074Z,4.05
2023-06-20T15:37:00.045Z,4.26
2023-06-20T15:39:30.489Z,4.26
2023-06-20T15:42:00.520Z,4.27
2023-06-20T15:44:31.104Z,4.17
2023-06-20T15:47:01.210Z,4.27
2023-06-20T15:49:31.175Z,4.04
2023-06-20T15:52:01.213Z,3.93
2023-06-20T15:54:31.887Z,4.23
2023-06-20T15:57:01.826Z,4.02
2023-06-20T15:59:31.821Z,4.02
2023-06-20T16:02:01.954Z,4.02
2023-06-20T16:04:31.912Z,3.86
2023-06-20T16:07:02.498Z,4.03
2023-06-20T16:09:32.502Z,3.97
2023-06-20T16:12:02.551Z,3.95
2023-06-20T16:14:33.126Z,3.96
2023-06-20T16:17:04.279Z,4.07
2023-06-20T16:19:33.208Z,3.86
2023-06-20T16:22:03.240Z,3.82
2023-06-20T16:24:33.278Z,3.88
2023-06-20T16:27:03.344Z,4.09
2023-06-20T16:29:33.924Z,4.1
2023-06-20T16:32:04.518Z,4.1
2023-06-20T16:34:34.523Z,4
2023-06-20T16:37:04.673Z,3.99
2023-06-20T16:39:34.553Z,3.84
2023-06-20T16:42:05.220Z,4
2023-06-20T16:44:35.183Z,4.06
2023-06-20T16:47:05.295Z,3.65
2023-06-20T16:49:35.309Z,4.04
2023-06-20T16:52:05.890Z,4.16
2023-06-20T16:54:35.845Z,4.16
2023-06-20T16:57:05.926Z,4.48
2023-06-20T16:59:35.863Z,4.27
2023-06-20T17:02:05.983Z,4.21
2023-06-20T17:04:35.913Z,4.32
2023-06-20T17:07:06.104Z,4.82
2023-06-20T17:09:36.691Z,4.56
2023-06-20T17:12:07.149Z,4.26
2023-06-20T17:14:37.666Z,4.64
2023-06-20T17:17:07.909Z,4.33
2023-06-20T17:19:38.276Z,4.94
2023-06-20T17:22:11.422Z,4.78
2023-06-20T17:24:38.756Z,4.89
2023-06-20T17:27:08.632Z,4.61
2023-06-20T17:29:38.650Z,4.72
2023-06-20T17:32:08.731Z,4.56
2023-06-20T17:34:38.733Z,4.51
2023-06-20T17:37:08.780Z,4.74
2023-06-20T17:39:38.882Z,4.81
2023-06-20T17:42:09.531Z,4.6
2023-06-20T17:44:39.471Z,4.82
2023-06-20T17:47:09.585Z,4.83
2023-06-20T17:49:40.133Z,4.57
2023-06-20T17:52:10.829Z,4.52
2023-06-20T17:54:40.775Z,4.86
2023-06-20T17:57:10.838Z,4.81
2023-06-20T17:59:40.883Z,4.92
2023-06-20T18:02:10.947Z,5.22
2023-06-20T18:04:40.997Z,4.71
2023-06-20T18:07:11.065Z,4.72
2023-06-20T18:09:41.114Z,5.01
2023-06-20T18:12:11.723Z,4.68
2023-06-20T18:14:41.880Z,4.79
2023-06-20T18:17:14.695Z,4.99
2023-06-20T18:19:55.643Z,5.23
2023-06-20T18:22:11.980Z,5.48
2023-06-20T18:24:42.100Z,5.49
2023-06-20T18:27:12.169Z,6.02
2023-06-20T18:29:42.157Z,5.66
2023-06-20T18:32:12.308Z,6.43
2023-06-20T18:34:42.315Z,5.16
2023-06-20T18:37:12.392Z,4.89
2023-06-20T18:39:42.569Z,5.23
2023-06-20T18:42:12.559Z,5.59
2023-06-20T18:44:42.723Z,6.13
2023-06-20T18:47:12.902Z,6.4
2023-06-20T18:49:42.960Z,6.29
2023-06-20T18:52:13.046Z,6.27
2023-06-20T18:54:43.185Z,6.73
2023-06-20T18:57:13.363Z,6.89
2023-06-20T18:59:43.534Z,7.05
2023-06-20T19:02:13.872Z,6.85
2023-06-20T19:04:43.954Z,7.2
2023-06-20T19:07:14.108Z,7.36
2023-06-20T19:09:44.305Z,7.33
2023-06-20T19:12:14.525Z,7.56
2023-06-20T19:14:44.768Z,7.42
2023-06-20T19:17:14.970Z,7.52
2023-06-20T19:19:45.267Z,8.27
2023-06-20T19:22:15.429Z,7.84
2023-06-20T19:24:45.789Z,8.23
2023-06-20T19:27:15.911Z,8.27
2023-06-20T19:29:46.228Z,8.26
2023-06-20T19:32:16.384Z,8.23
2023-06-20T19:34:48.458Z,8.88
2023-06-20T19:37:16.897Z,9.01
2023-06-20T19:39:47.111Z,8.44
2023-06-20T19:42:17.341Z,8.1
2023-06-20T19:44:47.572Z,9.11
2023-06-20T19:47:17.852Z,9.21
2023-06-20T19:49:48.054Z,9.58
2023-06-20T19:52:18.315Z,8.72
2023-06-20T19:54:48.488Z,8.53
2023-06-20T19:57:18.708Z,9.3
2023-06-20T19:59:48.974Z,9.01
2023-06-20T20:02:19.129Z,9.21
2023-06-20T20:04:49.347Z,9.46
2023-06-20T20:07:19.571Z,8.58
2023-06-20T20:09:49.850Z,8.65
2023-06-20T20:12:20.627Z,8.29
2023-06-20T20:14:50.813Z,7.96
2023-06-20T20:17:20.962Z,8.93
2023-06-20T20:19:51.168Z,9.04
2023-06-20T20:22:21.968Z,8.81
2023-06-20T20:25:09.986Z,8.7
2023-06-20T20:27:22.937Z,8.65
2023-06-20T20:29:53.169Z,8.61
2023-06-20T20:32:23.533Z,8.66
2023-06-20T20:34:53.632Z,8.97
2023-06-20T20:37:23.943Z,9.67
2023-06-20T20:39:54.063Z,9.18
2023-06-20T20:42:24.881Z,9.91
2023-06-20T20:44:55.092Z,9.54
2023-06-20T20:47:25.500Z,9.34
2023-06-20T20:49:56.148Z,9.78
2023-06-20T20:52:26.423Z,9.14
2023-06-20T20:54:56.603Z,9.66
2023-06-20T20:57:26.863Z,9.51
2023-06-20T20:59:57.064Z,9.84
2023-06-20T21:02:27.327Z,10.93
2023-06-20T21:04:57.494Z,10.35
2023-06-20T21:07:27.719Z,10.85
2023-06-20T21:09:57.968Z,10.97
2023-06-20T21:12:28.144Z,10.52
2023-06-20T21:14:58.367Z,10.47
2023-06-20T21:17:29.184Z,10.38
2023-06-20T21:19:59.369Z,10.3
2023-06-20T21:22:30.137Z,9.75
2023-06-20T21:25:00.338Z,10.12
2023-06-20T21:27:31.140Z,10.46
2023-06-20T21:30:01.335Z,10.65
2023-06-20T21:32:31.584Z,10.11
2023-06-20T21:35:02.322Z,9.87
2023-06-20T21:37:32.555Z,10.86
2023-06-20T21:40:02.726Z,11.07
2023-06-20T21:42:36.702Z,10.65
2023-06-20T21:45:03.177Z,10.44
2023-06-20T21:47:33.400Z,10.37
2023-06-20T21:50:03.584Z,10.57
2023-06-20T21:52:33.792Z,10.98
2023-06-20T21:55:04.415Z,10.46
2023-06-20T21:57:34.848Z,10.63
2023-06-20T22:00:04.968Z,10.57
2023-06-20T22:02:35.853Z,10.83
2023-06-20T22:05:05.982Z,10.39
2023-06-20T22:07:36.254Z,10.64
2023-06-20T22:10:06.512Z,10.85
2023-06-20T22:12:36.695Z,10.57
2023-06-20T22:15:06.822Z,10.77
2023-06-20T22:17:37.217Z,10.68
2023-06-20T22:20:07.269Z,10.65
2023-06-20T22:22:37.480Z,10.78
2023-06-20T22:25:07.720Z,10.7
2023-06-20T22:27:38.485Z,11.13
2023-06-20T22:30:08.681Z,10.77
2023-06-20T22:32:38.978Z,11.13
2023-06-20T22:35:09.284Z,11.1
2023-06-20T22:37:40.002Z,10.8
2023-06-20T22:40:10.174Z,10.37
2023-06-20T22:42:40.965Z,10.17
2023-06-20T22:45:11.186Z,9.91
2023-06-20T22:47:41.466Z,10.68
2023-06-20T22:50:12.228Z,10.83
2023-06-20T22:52:42.452Z,10.73
2023-06-20T22:55:12.677Z,10.39
2023-06-20T22:57:43.576Z,10.53
2023-06-20T23:00:14.270Z,10.73
2023-06-20T23:02:44.911Z,10.8
2023-06-20T23:05:15.588Z,10.77
2023-06-20T23:07:46.106Z,11.12
2023-06-20T23:10:16.865Z,11.26
2023-06-20T23:12:47.130Z,10.99
2023-06-20T23:15:17.336Z,10.86
2023-06-20T23:17:47.655Z,10.93
2023-06-20T23:20:17.711Z,11.2
2023-06-20T23:22:48.373Z,10.96
2023-06-20T23:25:19.165Z,10.69
2023-06-20T23:27:49.714Z,10.64
2023-06-20T23:30:20.423Z,11.04
2023-06-20T23:32:51.419Z,10.77
2023-06-20T23:35:22.054Z,11.23
2023-06-20T23:37:52.884Z,11.19
2023-06-20T23:40:23.106Z,11.43
2023-06-20T23:42:53.605Z,11.24
2023-06-20T23:45:24.369Z,10.82
2023-06-20T23:47:55.290Z,11.4
2023-06-20T23:50:25.916Z,11.11
2023-06-20T23:52:56.029Z,10.31
2023-06-20T23:55:26.234Z,10.43
2023-06-20T23:57:56.787Z,10.07
